createdAt,value
2023-05-03T00:01:16.346Z,18.08
2023-05-03T00:03:43.467Z,18.11
2023-05-03T00:06:12.513Z,18.46
2023-05-03T00:08:45.980Z,17.95
2023-05-03T00:11:13.527Z,18.20
2023-05-03T00:13:40.991Z,18.10
2023-05-03T00:16:07.803Z,18.20
2023-05-03T00:18:35.875Z,18.15
2023-05-03T00:21:03.571Z,18.05
2023-05-03T00:23:30.528Z,18.19
2023-05-03T00:26:00.737Z,18.31
2023-05-03T00:28:28.209Z,18.50
2023-05-03T00:30:55.662Z,18.02
2023-05-03T00:33:27.219Z,18.19
2023-05-03T00:35:55.121Z,18.22
2023-05-03T00:38:22.569Z,18.04
2023-05-03T00:40:54.844Z,18.36
2023-05-03T00:43:24.046Z,18.32
2023-05-03T00:45:52.585Z,18.23
2023-05-03T00:48:22.784Z,18.37
2023-05-03T00:50:49.750Z,18.37
2023-05-03T00:53:17.502Z,18.48
2023-05-03T00:55:46.244Z,18.42
2023-05-03T00:58:13.448Z,18.26
2023-05-03T01:00:42.531Z,17.85
2023-05-03T01:03:09.979Z,18.23
2023-05-03T01:05:51.487Z,18.27
2023-05-03T01:08:28.503Z,18.08
2023-05-03T01:11:02.663Z,17.98
2023-05-03T01:13:38.606Z,17.99
2023-05-03T01:16:17.294Z,17.94
2023-05-03T01:18:47.600Z,17.85
2023-05-03T01:21:17.699Z,17.53
2023-05-03T01:23:55.081Z,17.67
2023-05-03T01:26:24.772Z,17.52
2023-05-03T01:28:53.431Z,17.53
2023-05-03T01:31:29.117Z,17.71
2023-05-03T01:34:10.960Z,17.81
2023-05-03T01:36:41.524Z,17.48
2023-05-03T01:39:16.978Z,17.38
2023-05-03T01:41:47.032Z,17.48
2023-05-03T01:44:16.032Z,17.51
2023-05-03T01:46:45.073Z,17.26
2023-05-03T01:49:13.284Z,17.25
2023-05-03T01:51:40.978Z,17.21
2023-05-03T01:54:08.596Z,17.29
2023-05-03T01:56:37.075Z,17.14
2023-05-03T01:59:06.024Z,17.12
2023-05-03T02:01:33.499Z,17.22
2023-05-03T02:04:00.860Z,17.09
2023-05-03T02:06:28.358Z,17.11
2023-05-03T02:08:56.087Z,17.27
2023-05-03T02:11:23.456Z,17.32
2023-05-03T02:13:50.909Z,17.31
2023-05-03T02:16:20.956Z,17.42
2023-05-03T02:18:48.279Z,17.06
2023-05-03T02:21:15.708Z,17.20
2023-05-03T02:23:43.130Z,17.20
2023-05-03T02:26:10.177Z,17.42
2023-05-03T02:28:37.391Z,17.33
2023-05-03T02:31:04.836Z,17.25
2023-05-03T02:33:34.272Z,17.50
2023-05-03T02:36:01.935Z,17.33
2023-05-03T02:38:30.158Z,17.25
2023-05-03T02:40:57.862Z,17.31
2023-05-03T02:43:25.334Z,17.31
2023-05-03T02:45:52.714Z,17.39
2023-05-03T02:48:20.186Z,17.24
2023-05-03T02:50:49.105Z,17.31
2023-05-03T02:53:16.711Z,17.05
2023-05-03T02:55:43.868Z,16.97
2023-05-03T02:58:13.734Z,17.00
2023-05-03T03:00:41.819Z,17.04
2023-05-03T03:03:09.226Z,17.24
2023-05-03T03:05:37.272Z,17.09
2023-05-03T03:08:07.150Z,17.06
2023-05-03T03:10:34.661Z,17.08
2023-05-03T03:13:02.728Z,17.25
2023-05-03T03:15:30.190Z,17.19
2023-05-03T03:17:57.950Z,17.43
2023-05-03T03:20:25.648Z,17.44
2023-05-03T03:22:53.266Z,17.48
2023-05-03T03:25:22.349Z,17.57
2023-05-03T03:27:50.138Z,17.64
2023-05-03T03:30:17.330Z,17.50
2023-05-03T03:32:44.779Z,17.39
2023-05-03T03:35:12.881Z,17.38
2023-05-03T03:37:40.048Z,17.43
2023-05-03T03:40:08.580Z,17.37
2023-05-03T03:42:38.223Z,17.38
2023-05-03T03:45:06.273Z,17.34
2023-05-03T03:47:34.125Z,17.37
2023-05-03T03:50:02.184Z,17.30
2023-05-03T03:52:30.231Z,17.01
2023-05-03T03:54:57.711Z,17.23
2023-05-03T03:57:25.718Z,17.27
2023-05-03T03:59:54.575Z,17.14
2023-05-03T04:02:21.781Z,17.27
2023-05-03T04:04:50.398Z,17.32
2023-05-03T04:07:18.199Z,17.01
2023-05-03T04:09:45.898Z,16.93
2023-05-03T04:12:13.410Z,17.23
2023-05-03T04:14:40.988Z,17.16
2023-05-03T04:17:11.405Z,17.04
2023-05-03T04:19:38.786Z,17.06
2023-05-03T04:22:05.949Z,17.13
2023-05-03T04:24:33.680Z,17.12
2023-05-03T04:27:00.962Z,17.17
2023-05-03T04:29:28.245Z,17.16
2023-05-03T04:31:55.586Z,17.06
2023-05-03T04:34:24.457Z,16.67
2023-05-03T04:36:51.881Z,16.26
2023-05-03T04:39:19.120Z,16.48
2023-05-03T04:41:45.937Z,16.30
2023-05-03T04:44:13.528Z,16.46
2023-05-03T04:46:41.267Z,16.56
2023-05-03T04:49:08.980Z,16.57
2023-05-03T04:51:38.197Z,16.49
2023-05-03T04:54:05.122Z,16.43
2023-05-03T04:56:32.404Z,16.38
2023-05-03T04:59:00.057Z,16.58
2023-05-03T05:01:28.212Z,16.43
2023-05-03T05:03:57.124Z,16.44
2023-05-03T05:06:24.682Z,16.52
2023-05-03T05:08:52.968Z,16.63
2023-05-03T05:11:20.444Z,16.75
2023-05-03T05:13:48.287Z,16.90
2023-05-03T05:16:15.851Z,17.08
2023-05-03T05:18:43.401Z,17.03
2023-05-03T05:21:10.903Z,17.15
2023-05-03T05:23:38.049Z,16.84
2023-05-03T05:26:06.579Z,16.77
2023-05-03T05:28:34.125Z,17.15
2023-05-03T05:31:01.498Z,17.37
2023-05-03T05:33:29.005Z,17.58
2023-05-03T05:35:56.455Z,17.77
2023-05-03T05:38:23.850Z,17.79
2023-05-03T05:40:51.353Z,17.84
2023-05-03T05:43:20.801Z,17.99
2023-05-03T05:45:48.406Z,18.13
2023-05-03T05:48:16.162Z,18.65
2023-05-03T05:50:44.474Z,18.81
2023-05-03T05:53:12.446Z,18.82
2023-05-03T05:55:40.243Z,18.95
2023-05-03T05:58:07.819Z,19.04
2023-05-03T06:00:38.011Z,19.07
2023-05-03T06:03:06.005Z,19.23
2023-05-03T06:05:33.594Z,19.56
2023-05-03T06:08:07.104Z,19.89
2023-05-03T06:10:34.401Z,20.14
2023-05-03T06:13:01.833Z,20.60
2023-05-03T06:15:29.655Z,20.33
2023-05-03T06:17:58.488Z,20.42
2023-05-03T06:20:25.349Z,20.67
2023-05-03T06:22:55.171Z,20.58
2023-05-03T06:25:22.443Z,20.83
2023-05-03T06:27:49.936Z,21.00
2023-05-03T06:30:17.404Z,21.22
2023-05-03T06:32:47.923Z,21.58
2023-05-03T06:35:17.246Z,21.43
2023-05-03T06:37:44.536Z,21.36
2023-05-03T06:40:12.437Z,20.94
2023-05-03T06:42:39.769Z,20.70
2023-05-03T06:45:07.904Z,20.45
2023-05-03T06:47:35.468Z,20.75
2023-05-03T06:50:03.010Z,20.35
2023-05-03T06:52:32.050Z,20.51
2023-05-03T06:54:58.735Z,20.50
2023-05-03T06:57:28.211Z,20.59
2023-05-03T06:59:56.253Z,20.33
2023-05-03T07:02:24.039Z,20.41
2023-05-03T07:04:50.861Z,20.85
2023-05-03T07:07:18.415Z,21.43
2023-05-03T07:09:47.290Z,21.41
2023-05-03T07:12:14.004Z,22.00
2023-05-03T07:14:41.438Z,21.74
2023-05-03T07:17:08.521Z,22.25
2023-05-03T07:19:36.076Z,22.66
2023-05-03T07:22:04.645Z,21.95
2023-05-03T07:24:32.564Z,22.17
2023-05-03T07:27:03.491Z,22.60
2023-05-03T07:29:30.947Z,22.48
2023-05-03T07:31:58.905Z,22.32
2023-05-03T07:34:25.629Z,22.22
2023-05-03T07:36:53.038Z,23.02
2023-05-03T07:39:21.619Z,22.72
2023-05-03T07:41:48.375Z,22.75
2023-05-03T07:44:18.362Z,22.92
2023-05-03T07:46:45.613Z,22.55
2023-05-03T07:49:12.394Z,22.63
2023-05-03T07:51:39.542Z,22.67
2023-05-03T07:54:08.918Z,22.47
2023-05-03T07:56:36.898Z,22.93
2023-05-03T07:59:10.042Z,23.24
2023-05-03T08:01:39.858Z,22.97
2023-05-03T08:04:07.559Z,22.90
2023-05-03T08:06:34.943Z,22.51
2023-05-03T08:09:02.754Z,22.44
2023-05-03T08:11:30.314Z,22.57
2023-05-03T08:13:57.906Z,21.93
2023-05-03T08:16:26.011Z,22.46
2023-05-03T08:18:55.559Z,22.72
2023-05-03T08:21:22.695Z,22.68
2023-05-03T08:23:49.500Z,22.93
2023-05-03T08:26:16.326Z,22.79
2023-05-03T08:28:43.910Z,22.89
2023-05-03T08:31:10.829Z,22.85
2023-05-03T08:33:38.231Z,22.83
2023-05-03T08:36:08.380Z,22.91
2023-05-03T08:38:36.046Z,22.88
2023-05-03T08:41:13.021Z,22.98
2023-05-03T08:43:46.313Z,22.49
2023-05-03T08:46:14.454Z,23.04
2023-05-03T08:48:46.687Z,22.87
2023-05-03T08:51:16.545Z,22.83
2023-05-03T08:53:44.029Z,22.79
2023-05-03T08:56:15.671Z,23.28
2023-05-03T08:58:43.437Z,22.73
2023-05-03T09:01:16.988Z,22.63
2023-05-03T09:03:50.951Z,23.08
2023-05-03T09:06:23.597Z,23.02
2023-05-03T09:08:51.260Z,23.78
2023-05-03T09:11:23.526Z,23.18
2023-05-03T09:13:52.112Z,23.02
2023-05-03T09:16:27.542Z,23.14
2023-05-03T09:18:58.777Z,23.46
2023-05-03T09:21:28.565Z,23.87
2023-05-03T09:23:56.406Z,23.48
2023-05-03T09:26:30.832Z,23.33
2023-05-03T09:29:02.349Z,23.99
2023-05-03T09:31:31.583Z,23.86
2023-05-03T09:34:00.972Z,23.79
2023-05-03T09:36:46.408Z,23.89
2023-05-03T09:39:18.084Z,24.51
2023-05-03T09:41:45.648Z,24.10
2023-05-03T09:44:15.013Z,24.34
2023-05-03T09:47:03.420Z,24.15
2023-05-03T09:49:33.058Z,24.13
2023-05-03T09:52:01.805Z,24.08
2023-05-03T09:54:30.892Z,24.22
2023-05-03T09:57:00.202Z,23.50
2023-05-03T09:59:27.372Z,24.06
2023-05-03T10:01:57.493Z,23.76
2023-05-03T10:04:26.641Z,23.79
2023-05-03T10:07:01.017Z,23.56
2023-05-03T10:09:37.317Z,24.32
2023-05-03T10:12:07.889Z,24.89
2023-05-03T10:14:35.898Z,25.06
2023-05-03T10:17:08.896Z,25.50
2023-05-03T10:19:42.554Z,25.97
2023-05-03T10:24:15.650Z,24.49
2023-05-03T10:26:44.475Z,23.96
2023-05-03T10:29:45.539Z,23.47
2023-05-03T10:32:44.517Z,23.59
2023-05-03T10:35:14.149Z,23.67
2023-05-03T10:37:41.805Z,23.22
2023-05-03T10:40:12.288Z,23.66
2023-05-03T10:42:39.920Z,23.97
2023-05-03T10:45:08.773Z,24.03
2023-05-03T10:47:35.897Z,24.70
2023-05-03T10:50:26.946Z,25.40
2023-05-03T10:52:53.619Z,25.81
2023-05-03T10:55:23.155Z,24.89
2023-05-03T10:57:52.539Z,24.40
2023-05-03T11:00:24.161Z,24.69
2023-05-03T11:03:09.498Z,24.85
2023-05-03T11:05:37.024Z,24.98
2023-05-03T11:08:12.414Z,25.60
2023-05-03T11:10:41.204Z,25.58
2023-05-03T11:13:08.028Z,24.65
2023-05-03T11:15:35.190Z,25.37
2023-05-03T11:18:02.050Z,25.44
2023-05-03T11:20:29.299Z,25.65
2023-05-03T11:22:56.378Z,25.13
2023-05-03T11:25:23.060Z,25.60
2023-05-03T11:27:51.049Z,25.90
2023-05-03T11:30:17.694Z,25.26
2023-05-03T11:32:44.956Z,24.87
2023-05-03T11:35:13.248Z,25.02
2023-05-03T11:37:40.175Z,25.60
2023-05-03T11:40:14.819Z,24.57
2023-05-03T11:42:52.231Z,24.85
2023-05-03T11:45:22.665Z,25.25
2023-05-03T11:47:50.384Z,24.89
2023-05-03T11:50:17.792Z,25.44
2023-05-03T11:52:45.265Z,25.99
2023-05-03T11:55:12.325Z,26.37
2023-05-03T11:57:39.030Z,26.51
2023-05-03T12:00:15.238Z,25.24
2023-05-03T12:02:41.973Z,25.66
2023-05-03T12:05:09.978Z,25.41
2023-05-03T12:07:37.840Z,25.54
2023-05-03T12:10:20.764Z,25.21
2023-05-03T12:12:56.419Z,25.53
2023-05-03T12:15:33.914Z,25.53
2023-05-03T12:18:04.175Z,25.70
2023-05-03T12:23:03.957Z,25.65
2023-05-03T12:25:33.887Z,24.76
2023-05-03T12:28:18.687Z,23.99
2023-05-03T12:30:48.412Z,24.70
2023-05-03T12:33:15.832Z,24.93
2023-05-03T12:35:46.909Z,24.65
2023-05-03T12:38:16.596Z,24.41
2023-05-03T12:40:44.002Z,24.89
2023-05-03T12:43:10.807Z,24.79
2023-05-03T12:45:40.167Z,25.58
2023-05-03T12:48:09.166Z,25.10
2023-05-03T12:50:38.750Z,24.68
2023-05-03T12:53:09.288Z,25.06
2023-05-03T12:55:42.825Z,24.73
2023-05-03T13:00:49.251Z,24.81
2023-05-03T13:03:33.467Z,24.93
2023-05-03T13:06:01.416Z,25.44
2023-05-03T13:08:34.897Z,24.97
2023-05-03T13:11:02.223Z,24.66
2023-05-03T13:13:29.099Z,24.14
2023-05-03T13:15:55.779Z,23.59
2023-05-03T13:18:22.406Z,23.59
2023-05-03T13:20:50.423Z,23.87
2023-05-03T13:23:17.293Z,23.85
2023-05-03T13:25:44.502Z,23.36
2023-05-03T13:28:11.191Z,23.24
2023-05-03T13:30:37.815Z,23.67
2023-05-03T13:33:04.509Z,24.17
2023-05-03T13:35:31.329Z,23.91
2023-05-03T13:37:59.303Z,24.09
2023-05-03T13:40:25.904Z,24.47
2023-05-03T13:42:52.833Z,24.35
2023-05-03T13:45:19.543Z,24.92
2023-05-03T13:50:15.947Z,24.45
2023-05-03T13:52:42.626Z,24.15
2023-05-03T13:55:10.771Z,23.93
2023-05-03T13:57:37.362Z,24.26
2023-05-03T14:00:04.870Z,24.74
2023-05-03T14:02:31.877Z,24.48
2023-05-03T14:04:58.480Z,24.18
2023-05-03T14:07:25.114Z,23.94
2023-05-03T14:09:53.234Z,24.13
2023-05-03T14:12:21.207Z,23.60
2023-05-03T14:14:47.894Z,23.57
2023-05-03T14:17:14.727Z,23.91
2023-05-03T14:19:41.429Z,23.99
2023-05-03T14:22:08.058Z,24.30
2023-05-03T14:24:34.715Z,23.89
2023-05-03T14:27:01.345Z,23.99
2023-05-03T14:29:29.323Z,24.36
2023-05-03T14:31:55.945Z,24.10
2023-05-03T14:34:22.560Z,24.20
2023-05-03T14:36:49.114Z,23.28
2023-05-03T14:39:15.807Z,22.88
2023-05-03T14:41:45.021Z,23.24
2023-05-03T14:44:11.762Z,23.82
2023-05-03T14:46:40.124Z,23.53
2023-05-03T14:49:07.864Z,23.29
2023-05-03T14:51:34.488Z,22.85
2023-05-03T14:54:01.316Z,22.62
2023-05-03T14:56:27.912Z,22.81
2023-05-03T14:58:54.510Z,23.20
2023-05-03T15:01:22.002Z,22.66
2023-05-03T15:03:50.151Z,22.79
2023-05-03T15:06:22.834Z,22.53
2023-05-03T15:08:49.516Z,22.52
2023-05-03T15:11:16.133Z,21.83
2023-05-03T15:13:42.892Z,22.05
2023-05-03T15:16:09.848Z,21.60
2023-05-03T15:18:36.579Z,21.87
2023-05-03T15:21:05.131Z,21.85
2023-05-03T15:23:31.833Z,22.07
2023-05-03T15:25:58.442Z,22.39
2023-05-03T15:28:25.094Z,22.69
2023-05-03T15:30:51.678Z,22.70
2023-05-03T15:33:18.357Z,22.51
2023-05-03T15:35:45.001Z,22.88
2023-05-03T15:38:12.996Z,22.84
2023-05-03T15:40:40.345Z,21.88
2023-05-03T15:43:07.018Z,22.19
2023-05-03T15:45:33.718Z,22.87
2023-05-03T15:48:00.696Z,22.63
2023-05-03T15:50:27.537Z,22.70
2023-05-03T15:52:54.143Z,21.84
2023-05-03T15:55:22.650Z,22.35
2023-05-03T15:57:49.232Z,22.09
2023-05-03T16:00:16.871Z,22.19
2023-05-03T16:02:43.645Z,22.93
2023-05-03T16:05:10.802Z,22.14
2023-05-03T16:07:37.499Z,22.36
2023-05-03T16:10:04.816Z,22.40
2023-05-03T16:12:33.157Z,22.37
2023-05-03T16:14:59.918Z,22.81
2023-05-03T16:17:26.812Z,22.57
2023-05-03T16:19:53.694Z,22.86
2023-05-03T16:22:20.363Z,22.23
2023-05-03T16:24:46.990Z,22.41
2023-05-03T16:27:13.894Z,22.55
2023-05-03T16:29:41.873Z,22.44
2023-05-03T16:32:08.709Z,22.35
2023-05-03T16:34:35.619Z,21.70
2023-05-03T16:37:02.311Z,22.02
2023-05-03T16:39:28.949Z,22.36
2023-05-03T16:41:55.680Z,22.27
2023-05-03T16:44:22.342Z,22.47
2023-05-03T16:46:50.908Z,22.88
2023-05-03T16:49:17.616Z,22.42
2023-05-03T16:51:44.910Z,22.45
2023-05-03T16:54:11.554Z,21.81
2023-05-03T16:56:38.172Z,21.60
2023-05-03T16:59:04.848Z,22.12
2023-05-03T17:01:31.579Z,21.89
2023-05-03T17:03:59.617Z,22.46
2023-05-03T17:06:26.275Z,22.61
2023-05-03T17:08:53.250Z,22.17
2023-05-03T17:11:19.833Z,22.19
2023-05-03T17:13:46.377Z,22.13
2023-05-03T17:16:13.603Z,22.14
2023-05-03T17:18:41.364Z,21.91
2023-05-03T17:21:10.107Z,21.69
2023-05-03T17:23:38.241Z,21.77
2023-05-03T17:26:06.955Z,22.04
2023-05-03T17:28:33.826Z,22.15
2023-05-03T17:31:00.786Z,21.27
2023-05-03T17:33:27.434Z,21.89
2023-05-03T17:35:54.671Z,21.46
2023-05-03T17:38:23.047Z,21.99
2023-05-03T17:40:51.094Z,21.55
2023-05-03T17:43:18.068Z,21.66
2023-05-03T17:45:45.965Z,21.23
2023-05-03T17:48:13.695Z,21.31
2023-05-03T17:50:41.844Z,21.33
2023-05-03T17:53:08.834Z,21.00
2023-05-03T17:55:37.655Z,21.22
2023-05-03T17:58:04.788Z,20.55
2023-05-03T18:00:31.951Z,20.81
2023-05-03T18:02:58.958Z,20.56
2023-05-03T18:05:26.013Z,21.19
2023-05-03T18:07:52.996Z,21.14
2023-05-03T18:10:20.038Z,21.33
2023-05-03T18:12:48.289Z,20.99
2023-05-03T18:15:15.124Z,20.66
2023-05-03T18:17:42.487Z,20.39
2023-05-03T18:20:09.810Z,20.61
2023-05-03T18:22:37.133Z,20.36
2023-05-03T18:25:04.906Z,20.63
2023-05-03T18:27:31.866Z,20.68
2023-05-03T18:30:00.547Z,20.51
2023-05-03T18:32:27.447Z,20.52
2023-05-03T18:34:54.111Z,20.50
2023-05-03T18:37:23.105Z,19.88
2023-05-03T18:39:51.311Z,20.11
2023-05-03T18:42:18.678Z,19.75
2023-05-03T18:44:45.734Z,20.09
2023-05-03T18:47:14.070Z,20.22
2023-05-03T18:49:41.113Z,20.46
2023-05-03T18:52:08.093Z,19.93
2023-05-03T18:54:38.224Z,19.99
2023-05-03T18:57:05.047Z,20.06
2023-05-03T18:59:32.050Z,20.49
2023-05-03T19:01:59.344Z,20.42
2023-05-03T19:04:31.863Z,20.42
2023-05-03T19:06:59.041Z,20.23
2023-05-03T19:09:26.177Z,19.92
2023-05-03T19:11:53.381Z,19.84
2023-05-03T19:14:21.486Z,19.52
2023-05-03T19:16:48.452Z,19.79
2023-05-03T19:19:15.861Z,19.54
2023-05-03T19:21:44.992Z,19.33
2023-05-03T19:24:11.814Z,19.33
2023-05-03T19:26:38.565Z,19.48
2023-05-03T19:29:05.491Z,19.60
2023-05-03T19:31:32.276Z,19.55
2023-05-03T19:33:59.195Z,19.46
2023-05-03T19:36:26.386Z,19.41
2023-05-03T19:38:54.799Z,19.22
2023-05-03T19:41:22.070Z,18.95
2023-05-03T19:43:49.080Z,19.23
2023-05-03T19:46:19.636Z,19.08
2023-05-03T19:48:46.429Z,19.11
2023-05-03T19:51:14.042Z,18.97
2023-05-03T19:53:41.134Z,18.86
2023-05-03T19:56:09.788Z,18.68
2023-05-03T19:58:37.060Z,18.51
2023-05-03T20:01:03.960Z,18.75
2023-05-03T20:03:31.020Z,18.74
2023-05-03T20:05:58.166Z,18.43
2023-05-03T20:08:25.240Z,18.38
2023-05-03T20:10:52.137Z,18.37
2023-05-03T20:13:20.340Z,18.18
2023-05-03T20:15:47.502Z,18.39
2023-05-03T20:18:14.662Z,18.51
2023-05-03T20:20:41.779Z,18.11
2023-05-03T20:23:08.676Z,17.81
2023-05-03T20:25:35.480Z,18.25
2023-05-03T20:28:02.515Z,17.72
2023-05-03T20:30:30.641Z,17.48
2023-05-03T20:32:58.058Z,17.43
2023-05-03T20:35:25.166Z,17.83
2023-05-03T20:37:52.066Z,17.77
2023-05-03T20:40:19.315Z,17.27
2023-05-03T20:42:46.064Z,17.29
2023-05-03T20:45:13.043Z,17.18
2023-05-03T20:47:41.469Z,17.51
2023-05-03T20:50:09.082Z,17.25
2023-05-03T20:52:36.074Z,17.15
2023-05-03T20:55:03.181Z,17.07
2023-05-03T20:57:31.463Z,17.21
2023-05-03T20:59:59.086Z,17.45
2023-05-03T21:02:26.039Z,17.45
2023-05-03T21:04:54.635Z,17.83
2023-05-03T21:09:49.781Z,17.07
2023-05-03T21:12:16.986Z,17.41
2023-05-03T21:14:43.817Z,17.18
2023-05-03T21:17:10.887Z,17.14
2023-05-03T21:19:37.847Z,17.22
2023-05-03T21:22:06.258Z,16.91
2023-05-03T21:24:33.405Z,16.96
2023-05-03T21:27:00.972Z,16.88
2023-05-03T21:29:27.566Z,17.03
2023-05-03T21:32:06.379Z,17.09
2023-05-03T21:34:33.454Z,16.99
2023-05-03T21:37:00.262Z,16.85
2023-05-03T21:39:28.734Z,16.80
2023-05-03T21:41:55.537Z,16.69
2023-05-03T21:44:22.278Z,16.63
2023-05-03T21:46:49.545Z,16.95
2023-05-03T21:49:16.351Z,16.10
2023-05-03T21:51:43.230Z,16.53
2023-05-03T21:54:10.155Z,15.88
2023-05-03T21:56:39.023Z,15.99
2023-05-03T21:59:06.666Z,16.42
2023-05-03T22:01:33.648Z,16.11
2023-05-03T22:04:00.715Z,15.91
2023-05-03T22:06:28.636Z,15.79
2023-05-03T22:08:55.942Z,15.52
2023-05-03T22:11:23.833Z,16.12
2023-05-03T22:14:06.770Z,15.24
2023-05-03T22:16:35.494Z,15.86
2023-05-03T22:19:07.961Z,16.05
2023-05-03T22:21:52.292Z,15.97
2023-05-03T22:24:20.887Z,15.90
2023-05-03T22:26:47.808Z,15.82
2023-05-03T22:29:27.950Z,15.58
2023-05-03T22:32:21.197Z,15.35
2023-05-03T22:34:50.845Z,15.50
2023-05-03T22:37:19.578Z,14.88
2023-05-03T22:39:50.179Z,15.28
2023-05-03T22:42:18.236Z,15.47
2023-05-03T22:44:50.359Z,14.98
2023-05-03T22:47:17.052Z,14.97
2023-05-03T22:49:51.929Z,15.11
2023-05-03T22:52:18.862Z,14.74
2023-05-03T22:54:48.539Z,15.26
2023-05-03T22:57:18.828Z,15.26
2023-05-03T22:59:51.497Z,15.00
2023-05-03T23:02:19.314Z,14.93
2023-05-03T23:04:51.249Z,15.17
2023-05-03T23:07:24.003Z,14.83
2023-05-03T23:10:00.207Z,14.82
2023-05-03T23:12:37.750Z,14.89
2023-05-03T23:15:32.405Z,14.82
2023-05-03T23:18:09.374Z,14.40
2023-05-03T23:20:41.893Z,14.06
2023-05-03T23:23:09.394Z,14.72
2023-05-03T23:25:37.156Z,14.60
2023-05-03T23:28:04.082Z,14.38
2023-05-03T23:30:32.640Z,14.48
2023-05-03T23:33:00.385Z,14.31
2023-05-03T23:35:27.401Z,14.61
2023-05-03T23:37:54.559Z,14.59
2023-05-03T23:40:21.521Z,13.99
2023-05-03T23:42:48.185Z,14.11
2023-05-03T23:45:14.931Z,14.73
2023-05-03T23:47:45.790Z,14.89
2023-05-03T23:50:21.113Z,14.70
2023-05-03T23:52:55.423Z,14.65
2023-05-03T23:55:22.174Z,14.27
2023-05-03T23:57:48.939Z,15.02
